sensor_id;sensor_type;location;lat;lon;timestamp;temperature;humidity
5848;DHT22;8756;49.29324300;8.70599800;2022-07-29T00:02:12;22.60;99.90
5848;DHT22;8756;49.29324300;8.70599800;2022-07-29T00:04:37;22.60;99.90
5848;DHT22;8756;49.29324300;8.70599800;2022-07-29T00:07:04;22.50;99.90
5848;DHT22;8756;49.29324300;8.70599800;2022-07-29T00:09:30;22.40;99.90
5848;DHT22;8756;49.29324300;8.70599800;2022-07-29T00:11:58;22.40;99.90
5848;DHT22;8756;49.29324300;8.70599800;2022-07-29T00:14:24;22.30;99.90
5848;DHT22;8756;49.29324300;8.70599800;2022-07-29T00:16:50;22.30;99.90
5848;DHT22;8756;49.29324300;8.70599800;2022-07-29T00:19:15;22.30;99.90
5848;DHT22;8756;49.29324300;8.70599800;2022-07-29T00:21:41;22.30;99.90
5848;DHT22;8756;49.29324300;8.70599800;2022-07-29T00:24:07;22.20;99.90
5848;DHT22;8756;49.29324300;8.70599800;2022-07-29T00:26:32;22.20;99.90
5848;DHT22;8756;49.29324300;8.70599800;2022-07-29T00:28:59;22.20;99.90
5848;DHT22;8756;49.29324300;8.70599800;2022-07-29T00:31:25;22.10;99.90
5848;DHT22;8756;49.29324300;8.70599800;2022-07-29T00:33:51;22.10;99.90
5848;DHT22;8756;49.29324300;8.70599800;2022-07-29T00:36:17;22.10;99.90
5848;DHT22;8756;49.29324300;8.70599800;2022-07-29T00:38:42;22.10;99.90
5848;DHT22;8756;49.29324300;8.70599800;2022-07-29T00:41:14;22.10;99.90
5848;DHT22;8756;49.29324300;8.70599800;2022-07-29T00:43:39;22.00;99.90
5848;DHT22;8756;49.29324300;8.70599800;2022-07-29T00:46:06;22.00;99.90
5848;DHT22;8756;49.29324300;8.70599800;2022-07-29T00:48:32;21.90;99.90
5848;DHT22;8756;49.29324300;8.70599800;2022-07-29T00:50:58;21.90;99.90
5848;DHT22;8756;49.29324300;8.70599800;2022-07-29T00:53:25;21.80;99.90
5848;DHT22;8756;49.29324300;8.70599800;2022-07-29T00:55:54;21.80;99.90
5848;DHT22;8756;49.29324300;8.70599800;2022-07-29T00:58:20;21.70;99.90
5848;DHT22;8756;49.29324300;8.70599800;2022-07-29T01:00:46;21.70;99.90
5848;DHT22;8756;49.29324300;8.70599800;2022-07-29T01:03:11;21.70;99.90
5848;DHT22;8756;49.29324300;8.70599800;2022-07-29T01:05:37;21.70;99.90
5848;DHT22;8756;49.29324300;8.70599800;2022-07-29T01:08:05;21.70;99.90
5848;DHT22;8756;49.29324300;8.70599800;2022-07-29T01:10:31;21.70;99.90
5848;DHT22;8756;49.29324300;8.70599800;2022-07-29T01:12:58;21.60;99.90
5848;DHT22;8756;49.29324300;8.70599800;2022-07-29T01:15:24;21.60;99.90
5848;DHT22;8756;49.29324300;8.70599800;2022-07-29T01:26:59;21.40;99.90
5848;DHT22;8756;49.29324300;8.70599800;2022-07-29T01:29:31;21.40;99.90
5848;DHT22;8756;49.29324300;8.70599800;2022-07-29T01:34:41;21.40;99.90
5848;DHT22;8756;49.29324300;8.70599800;2022-07-29T01:37:35;21.50;99.90
5848;DHT22;8756;49.29324300;8.70599800;2022-07-29T01:40:05;21.50;99.90
5848;DHT22;8756;49.29324300;8.70599800;2022-07-29T01:42:38;21.60;99.90
5848;DHT22;8756;49.29324300;8.70599800;2022-07-29T01:48:02;21.50;99.90
5848;DHT22;8756;49.29324300;8.70599800;2022-07-29T01:50:37;21.40;99.90
5848;DHT22;8756;49.29324300;8.70599800;2022-07-29T01:53:09;21.30;99.90
5848;DHT22;8756;49.29324300;8.70599800;2022-07-29T01:55:38;21.30;99.90
5848;DHT22;8756;49.29324300;8.70599800;2022-07-29T01:58:06;21.20;99.90
5848;DHT22;8756;49.29324300;8.70599800;2022-07-29T02:00:33;21.20;99.90
5848;DHT22;8756;49.29324300;8.70599800;2022-07-29T02:03:03;21.10;99.90
5848;DHT22;8756;49.29324300;8.70599800;2022-07-29T02:05:32;21.10;99.90
5848;DHT22;8756;49.29324300;8.70599800;2022-07-29T02:08:00;21.00;99.90
5848;DHT22;8756;49.29324300;8.70599800;2022-07-29T02:10:28;21.00;99.90
5848;DHT22;8756;49.29324300;8.70599800;2022-07-29T02:12:56;21.00;99.90
5848;DHT22;8756;49.29324300;8.70599800;2022-07-29T02:15:26;21.00;99.90
5848;DHT22;8756;49.29324300;8.70599800;2022-07-29T02:18:00;20.90;99.90
5848;DHT22;8756;49.29324300;8.70599800;2022-07-29T02:20:27;20.90;99.90
5848;DHT22;8756;49.29324300;8.70599800;2022-07-29T02:22:54;20.90;99.90
5848;DHT22;8756;49.29324300;8.70599800;2022-07-29T02:25:22;20.90;99.90
5848;DHT22;8756;49.29324300;8.70599800;2022-07-29T02:27:50;20.80;99.90
5848;DHT22;8756;49.29324300;8.70599800;2022-07-29T02:30:17;20.90;99.90
5848;DHT22;8756;49.29324300;8.70599800;2022-07-29T02:32:45;20.80;99.90
5848;DHT22;8756;49.29324300;8.70599800;2022-07-29T02:35:13;20.80;99.90
5848;DHT22;8756;49.29324300;8.70599800;2022-07-29T02:37:40;20.80;99.90
5848;DHT22;8756;49.29324300;8.70599800;2022-07-29T02:40:10;20.80;99.90
5848;DHT22;8756;49.29324300;8.70599800;2022-07-29T02:42:37;20.80;99.90
5848;DHT22;8756;49.29324300;8.70599800;2022-07-29T02:45:05;20.80;99.90
5848;DHT22;8756;49.29324300;8.70599800;2022-07-29T02:55:24;20.60;99.90
5848;DHT22;8756;49.29324300;8.70599800;2022-07-29T02:58:01;20.60;99.90
5848;DHT22;8756;49.29324300;8.70599800;2022-07-29T03:00:29;20.70;99.90
5848;DHT22;8756;49.29324300;8.70599800;2022-07-29T03:02:58;20.70;99.90
5848;DHT22;8756;49.29324300;8.70599800;2022-07-29T03:05:25;20.60;99.90
5848;DHT22;8756;49.29324300;8.70599800;2022-07-29T03:07:55;20.60;99.90
5848;DHT22;8756;49.29324300;8.70599800;2022-07-29T03:10:21;20.60;99.90
5848;DHT22;8756;49.29324300;8.70599800;2022-07-29T03:12:48;20.50;99.90
5848;DHT22;8756;49.29324300;8.70599800;2022-07-29T03:15:14;20.50;99.90
5848;DHT22;8756;49.29324300;8.70599800;2022-07-29T03:17:40;20.50;99.90
5848;DHT22;8756;49.29324300;8.70599800;2022-07-29T03:20:08;20.50;99.90
5848;DHT22;8756;49.29324300;8.70599800;2022-07-29T03:22:39;20.40;99.90
5848;DHT22;8756;49.29324300;8.70599800;2022-07-29T03:25:09;20.40;99.90
5848;DHT22;8756;49.29324300;8.70599800;2022-07-29T03:27:35;20.40;99.90
5848;DHT22;8756;49.29324300;8.70599800;2022-07-29T03:30:01;20.40;99.90
5848;DHT22;8756;49.29324300;8.70599800;2022-07-29T03:32:26;20.30;99.90
5848;DHT22;8756;49.29324300;8.70599800;2022-07-29T03:34:52;20.30;99.90
5848;DHT22;8756;49.29324300;8.70599800;2022-07-29T03:37:18;20.30;99.90
5848;DHT22;8756;49.29324300;8.70599800;2022-07-29T03:39:44;20.40;99.90
5848;DHT22;8756;49.29324300;8.70599800;2022-07-29T03:42:13;20.30;99.90
5848;DHT22;8756;49.29324300;8.70599800;2022-07-29T03:44:42;20.40;99.90
5848;DHT22;8756;49.29324300;8.70599800;2022-07-29T03:47:09;20.30;99.90
5848;DHT22;8756;49.29324300;8.70599800;2022-07-29T03:49:36;20.40;99.90
5848;DHT22;8756;49.29324300;8.70599800;2022-07-29T03:52:03;20.40;99.90
5848;DHT22;8756;49.29324300;8.70599800;2022-07-29T03:54:29;20.50;99.90
5848;DHT22;8756;49.29324300;8.70599800;2022-07-29T03:56:57;20.50;99.90
5848;DHT22;8756;49.29324300;8.70599800;2022-07-29T03:59:25;20.50;99.90
5848;DHT22;8756;49.29324300;8.70599800;2022-07-29T04:01:51;20.40;99.90
5848;DHT22;8756;49.29324300;8.70599800;2022-07-29T04:04:17;20.40;99.90
5848;DHT22;8756;49.29324300;8.70599800;2022-07-29T04:06:44;20.40;99.90
5848;DHT22;8756;49.29324300;8.70599800;2022-07-29T04:09:11;20.30;99.90
5848;DHT22;8756;49.29324300;8.70599800;2022-07-29T04:11:38;20.20;99.90
5848;DHT22;8756;49.29324300;8.70599800;2022-07-29T04:14:04;20.20;99.90
5848;DHT22;8756;49.29324300;8.70599800;2022-07-29T04:16:30;20.20;99.90
5848;DHT22;8756;49.29324300;8.70599800;2022-07-29T04:18:55;20.20;99.90
5848;DHT22;8756;49.29324300;8.70599800;2022-07-29T04:21:21;20.10;99.90
5848;DHT22;8756;49.29324300;8.70599800;2022-07-29T04:23:47;20.20;99.90
5848;DHT22;8756;49.29324300;8.70599800;2022-07-29T04:26:18;20.20;99.90
5848;DHT22;8756;49.29324300;8.70599800;2022-07-29T04:28:44;20.20;99.90
5848;DHT22;8756;49.29324300;8.70599800;2022-07-29T04:31:10;20.10;99.90
5848;DHT22;8756;49.29324300;8.70599800;2022-07-29T04:33:36;20.10;99.90
5848;DHT22;8756;49.29324300;8.70599800;2022-07-29T04:36:02;20.20;99.90
5848;DHT22;8756;49.29324300;8.70599800;2022-07-29T04:38:28;20.10;99.90
5848;DHT22;8756;49.29324300;8.70599800;2022-07-29T04:40:53;20.10;99.90
5848;DHT22;8756;49.29324300;8.70599800;2022-07-29T04:43:19;20.10;99.90
5848;DHT22;8756;49.29324300;8.70599800;2022-07-29T04:45:44;20.10;99.90
5848;DHT22;8756;49.29324300;8.70599800;2022-07-29T04:48:10;20.10;99.90
5848;DHT22;8756;49.29324300;8.70599800;2022-07-29T04:50:38;20.00;99.90
5848;DHT22;8756;49.29324300;8.70599800;2022-07-29T04:53:04;20.00;99.90
5848;DHT22;8756;49.29324300;8.70599800;2022-07-29T04:55:29;20.00;99.90
5848;DHT22;8756;49.29324300;8.70599800;2022-07-29T04:57:55;20.00;99.90
5848;DHT22;8756;49.29324300;8.70599800;2022-07-29T05:00:20;19.90;99.90
5848;DHT22;8756;49.29324300;8.70599800;2022-07-29T05:02:48;19.90;99.90
5848;DHT22;8756;49.29324300;8.70599800;2022-07-29T05:05:14;19.90;99.90
5848;DHT22;8756;49.29324300;8.70599800;2022-07-29T05:07:39;19.90;99.90
5848;DHT22;8756;49.29324300;8.70599800;2022-07-29T05:10:06;19.90;99.90
5848;DHT22;8756;49.29324300;8.70599800;2022-07-29T05:12:31;20.00;99.90
5848;DHT22;8756;49.29324300;8.70599800;2022-07-29T05:14:57;20.00;99.90
5848;DHT22;8756;49.29324300;8.70599800;2022-07-29T05:17:22;20.00;99.90
5848;DHT22;8756;49.29324300;8.70599800;2022-07-29T05:19:48;20.00;99.90
5848;DHT22;8756;49.29324300;8.70599800;2022-07-29T05:22:19;20.00;99.90
5848;DHT22;8756;49.29324300;8.70599800;2022-07-29T05:24:45;20.10;99.90
5848;DHT22;8756;49.29324300;8.70599800;2022-07-29T05:27:11;20.10;99.90
5848;DHT22;8756;49.29324300;8.70599800;2022-07-29T05:29:36;20.10;99.90
5848;DHT22;8756;49.29324300;8.70599800;2022-07-29T05:32:03;20.20;99.90
5848;DHT22;8756;49.29324300;8.70599800;2022-07-29T05:34:29;20.20;99.90
5848;DHT22;8756;49.29324300;8.70599800;2022-07-29T05:36:54;20.30;99.90
5848;DHT22;8756;49.29324300;8.70599800;2022-07-29T05:39:20;20.30;99.90
5848;DHT22;8756;49.29324300;8.70599800;2022-07-29T05:41:46;20.40;99.90
5848;DHT22;8756;49.29324300;8.70599800;2022-07-29T05:44:11;20.40;99.90
5848;DHT22;8756;49.29324300;8.70599800;2022-07-29T05:46:38;20.50;99.90
5848;DHT22;8756;49.29324300;8.70599800;2022-07-29T05:49:04;20.50;99.90
5848;DHT22;8756;49.29324300;8.70599800;2022-07-29T05:51:32;20.50;99.90
5848;DHT22;8756;49.29324300;8.70599800;2022-07-29T05:53:58;20.60;99.90
5848;DHT22;8756;49.29324300;8.70599800;2022-07-29T05:56:24;20.70;99.90
5848;DHT22;8756;49.29324300;8.70599800;2022-07-29T05:58:50;20.80;99.90
5848;DHT22;8756;49.29324300;8.70599800;2022-07-29T06:01:16;20.90;99.90
5848;DHT22;8756;49.29324300;8.70599800;2022-07-29T06:03:42;21.10;99.90
5848;DHT22;8756;49.29324300;8.70599800;2022-07-29T06:06:08;21.20;99.90
5848;DHT22;8756;49.29324300;8.70599800;2022-07-29T06:08:34;21.30;99.90
5848;DHT22;8756;49.29324300;8.70599800;2022-07-29T06:11:00;21.40;99.90
5848;DHT22;8756;49.29324300;8.70599800;2022-07-29T06:13:26;21.40;99.90
5848;DHT22;8756;49.29324300;8.70599800;2022-07-29T06:15:52;21.50;99.90
5848;DHT22;8756;49.29324300;8.70599800;2022-07-29T06:18:17;21.50;99.90
5848;DHT22;8756;49.29324300;8.70599800;2022-07-29T06:20:43;21.50;99.90
5848;DHT22;8756;49.29324300;8.70599800;2022-07-29T06:23:09;21.50;99.90
5848;DHT22;8756;49.29324300;8.70599800;2022-07-29T06:25:35;21.50;99.90
5848;DHT22;8756;49.29324300;8.70599800;2022-07-29T06:28:02;21.50;99.90
5848;DHT22;8756;49.29324300;8.70599800;2022-07-29T06:30:28;21.40;99.90
5848;DHT22;8756;49.29324300;8.70599800;2022-07-29T06:32:57;21.50;99.90
5848;DHT22;8756;49.29324300;8.70599800;2022-07-29T06:35:22;21.50;99.90
5848;DHT22;8756;49.29324300;8.70599800;2022-07-29T06:37:48;21.50;99.90
5848;DHT22;8756;49.29324300;8.70599800;2022-07-29T06:40:14;21.50;99.90
5848;DHT22;8756;49.29324300;8.70599800;2022-07-29T06:42:58;21.50;99.90
5848;DHT22;8756;49.29324300;8.70599800;2022-07-29T06:45:23;21.60;99.90
5848;DHT22;8756;49.29324300;8.70599800;2022-07-29T06:47:49;21.70;99.90
5848;DHT22;8756;49.29324300;8.70599800;2022-07-29T06:50:15;21.70;99.90
5848;DHT22;8756;49.29324300;8.70599800;2022-07-29T06:52:41;21.80;99.90
5848;DHT22;8756;49.29324300;8.70599800;2022-07-29T06:55:08;21.80;99.90
5848;DHT22;8756;49.29324300;8.70599800;2022-07-29T06:57:34;21.80;99.90
5848;DHT22;8756;49.29324300;8.70599800;2022-07-29T06:59:59;21.80;99.90
5848;DHT22;8756;49.29324300;8.70599800;2022-07-29T07:02:25;21.90;99.90
5848;DHT22;8756;49.29324300;8.70599800;2022-07-29T07:04:51;22.00;99.90
5848;DHT22;8756;49.29324300;8.70599800;2022-07-29T07:07:17;22.00;99.90
5848;DHT22;8756;49.29324300;8.70599800;2022-07-29T07:09:43;22.00;99.90
5848;DHT22;8756;49.29324300;8.70599800;2022-07-29T07:12:08;22.10;99.90
5848;DHT22;8756;49.29324300;8.70599800;2022-07-29T07:14:34;22.10;99.90
5848;DHT22;8756;49.29324300;8.70599800;2022-07-29T07:17:00;22.10;99.90
5848;DHT22;8756;49.29324300;8.70599800;2022-07-29T07:19:26;22.10;99.90
5848;DHT22;8756;49.29324300;8.70599800;2022-07-29T07:21:55;22.10;99.90
5848;DHT22;8756;49.29324300;8.70599800;2022-07-29T07:24:21;22.20;99.90
5848;DHT22;8756;49.29324300;8.70599800;2022-07-29T07:26:46;22.20;99.90
5848;DHT22;8756;49.29324300;8.70599800;2022-07-29T07:29:12;22.30;99.90
5848;DHT22;8756;49.29324300;8.70599800;2022-07-29T07:31:38;22.40;99.90
5848;DHT22;8756;49.29324300;8.70599800;2022-07-29T07:34:04;22.50;99.90
5848;DHT22;8756;49.29324300;8.70599800;2022-07-29T07:36:29;22.50;99.90
5848;DHT22;8756;49.29324300;8.70599800;2022-07-29T07:38:55;22.60;99.90
5848;DHT22;8756;49.29324300;8.70599800;2022-07-29T07:41:21;22.60;99.90
5848;DHT22;8756;49.29324300;8.70599800;2022-07-29T07:43:47;22.60;99.90
5848;DHT22;8756;49.29324300;8.70599800;2022-07-29T07:46:12;22.70;99.90
5848;DHT22;8756;49.29324300;8.70599800;2022-07-29T07:48:38;22.80;99.90
5848;DHT22;8756;49.29324300;8.70599800;2022-07-29T07:51:04;22.90;99.90
5848;DHT22;8756;49.29324300;8.70599800;2022-07-29T07:53:29;23.10;99.90
5848;DHT22;8756;49.29324300;8.70599800;2022-07-29T07:55:55;23.10;99.90
5848;DHT22;8756;49.29324300;8.70599800;2022-07-29T07:58:21;23.20;99.90
5848;DHT22;8756;49.29324300;8.70599800;2022-07-29T08:00:47;23.20;99.90
5848;DHT22;8756;49.29324300;8.70599800;2022-07-29T08:03:13;23.30;99.90
5848;DHT22;8756;49.29324300;8.70599800;2022-07-29T08:05:40;23.30;99.90
5848;DHT22;8756;49.29324300;8.70599800;2022-07-29T08:08:06;23.30;99.90
5848;DHT22;8756;49.29324300;8.70599800;2022-07-29T08:10:32;23.30;99.90
5848;DHT22;8756;49.29324300;8.70599800;2022-07-29T08:13:17;23.30;99.90
5848;DHT22;8756;49.29324300;8.70599800;2022-07-29T08:15:43;23.40;99.90
5848;DHT22;8756;49.29324300;8.70599800;2022-07-29T08:18:13;23.40;99.90
5848;DHT22;8756;49.29324300;8.70599800;2022-07-29T08:20:42;23.50;99.90
5848;DHT22;8756;49.29324300;8.70599800;2022-07-29T08:23:08;23.60;99.90
5848;DHT22;8756;49.29324300;8.70599800;2022-07-29T08:25:36;23.60;99.90
5848;DHT22;8756;49.29324300;8.70599800;2022-07-29T08:28:02;23.60;99.90
5848;DHT22;8756;49.29324300;8.70599800;2022-07-29T08:30:27;23.60;99.90
5848;DHT22;8756;49.29324300;8.70599800;2022-07-29T08:32:53;23.60;99.90
5848;DHT22;8756;49.29324300;8.70599800;2022-07-29T08:35:20;23.60;99.90
5848;DHT22;8756;49.29324300;8.70599800;2022-07-29T08:37:45;23.60;99.90
5848;DHT22;8756;49.29324300;8.70599800;2022-07-29T08:40:14;23.60;99.90
5848;DHT22;8756;49.29324300;8.70599800;2022-07-29T08:42:40;23.60;99.90
5848;DHT22;8756;49.29324300;8.70599800;2022-07-29T08:45:06;23.60;99.90
5848;DHT22;8756;49.29324300;8.70599800;2022-07-29T08:47:33;23.60;99.90
5848;DHT22;8756;49.29324300;8.70599800;2022-07-29T08:50:01;23.70;99.90
5848;DHT22;8756;49.29324300;8.70599800;2022-07-29T08:52:28;23.70;99.90
5848;DHT22;8756;49.29324300;8.70599800;2022-07-29T08:54:56;23.70;99.90
5848;DHT22;8756;49.29324300;8.70599800;2022-07-29T08:57:23;23.80;99.90
5848;DHT22;8756;49.29324300;8.70599800;2022-07-29T08:59:50;23.80;99.90
5848;DHT22;8756;49.29324300;8.70599800;2022-07-29T09:02:21;23.80;99.90
5848;DHT22;8756;49.29324300;8.70599800;2022-07-29T09:04:48;23.80;99.90
5848;DHT22;8756;49.29324300;8.70599800;2022-07-29T09:07:21;23.90;99.90
5848;DHT22;8756;49.29324300;8.70599800;2022-07-29T09:09:47;24.10;99.90
5848;DHT22;8756;49.29324300;8.70599800;2022-07-29T09:12:12;24.20;99.90
5848;DHT22;8756;49.29324300;8.70599800;2022-07-29T09:14:39;24.30;99.90
5848;DHT22;8756;49.29324300;8.70599800;2022-07-29T09:17:05;24.30;99.90
5848;DHT22;8756;49.29324300;8.70599800;2022-07-29T09:19:33;24.30;99.90
5848;DHT22;8756;49.29324300;8.70599800;2022-07-29T09:22:02;24.30;99.90
5848;DHT22;8756;49.29324300;8.70599800;2022-07-29T09:24:37;24.20;99.90
5848;DHT22;8756;49.29324300;8.70599800;2022-07-29T09:27:26;24.20;99.90
5848;DHT22;8756;49.29324300;8.70599800;2022-07-29T09:30:09;24.20;99.90
5848;DHT22;8756;49.29324300;8.70599800;2022-07-29T09:32:57;24.20;99.90
5848;DHT22;8756;49.29324300;8.70599800;2022-07-29T09:35:25;24.20;99.90
5848;DHT22;8756;49.29324300;8.70599800;2022-07-29T09:37:51;24.30;99.90
5848;DHT22;8756;49.29324300;8.70599800;2022-07-29T09:40:26;24.30;99.90
5848;DHT22;8756;49.29324300;8.70599800;2022-07-29T09:42:53;24.40;99.90
5848;DHT22;8756;49.29324300;8.70599800;2022-07-29T09:45:34;24.50;99.90
5848;DHT22;8756;49.29324300;8.70599800;2022-07-29T09:48:16;24.60;99.90
5848;DHT22;8756;49.29324300;8.70599800;2022-07-29T09:50:44;24.60;99.90
5848;DHT22;8756;49.29324300;8.70599800;2022-07-29T09:53:10;24.60;99.90
5848;DHT22;8756;49.29324300;8.70599800;2022-07-29T09:55:51;24.70;99.90
5848;DHT22;8756;49.29324300;8.70599800;2022-07-29T09:58:22;24.80;99.90
5848;DHT22;8756;49.29324300;8.70599800;2022-07-29T10:00:49;24.80;99.90
5848;DHT22;8756;49.29324300;8.70599800;2022-07-29T10:03:15;24.80;99.90
5848;DHT22;8756;49.29324300;8.70599800;2022-07-29T10:05:42;24.80;99.90
5848;DHT22;8756;49.29324300;8.70599800;2022-07-29T10:08:09;24.80;99.90
5848;DHT22;8756;49.29324300;8.70599800;2022-07-29T10:10:41;24.80;99.90
5848;DHT22;8756;49.29324300;8.70599800;2022-07-29T10:13:09;24.90;99.90
5848;DHT22;8756;49.29324300;8.70599800;2022-07-29T10:15:37;24.90;99.90
5848;DHT22;8756;49.29324300;8.70599800;2022-07-29T10:18:05;25.00;99.90
5848;DHT22;8756;49.29324300;8.70599800;2022-07-29T10:20:31;25.00;99.90
5848;DHT22;8756;49.29324300;8.70599800;2022-07-29T10:22:57;25.10;99.90
5848;DHT22;8756;49.29324300;8.70599800;2022-07-29T10:25:23;25.10;99.90
5848;DHT22;8756;49.29324300;8.70599800;2022-07-29T10:27:50;25.10;99.90
5848;DHT22;8756;49.29324300;8.70599800;2022-07-29T10:30:18;25.10;99.90
5848;DHT22;8756;49.29324300;8.70599800;2022-07-29T10:36:07;25.20;99.90
5848;DHT22;8756;49.29324300;8.70599800;2022-07-29T10:38:48;25.30;99.90
5848;DHT22;8756;49.29324300;8.70599800;2022-07-29T10:44:22;25.40;99.90
5848;DHT22;8756;49.29324300;8.70599800;2022-07-29T10:46:50;25.40;99.90
5848;DHT22;8756;49.29324300;8.70599800;2022-07-29T10:54:37;25.50;99.90
5848;DHT22;8756;49.29324300;8.70599800;2022-07-29T10:57:30;25.60;99.90
5848;DHT22;8756;49.29324300;8.70599800;2022-07-29T11:05:06;25.80;99.90
5848;DHT22;8756;49.29324300;8.70599800;2022-07-29T11:07:34;25.90;99.90
5848;DHT22;8756;49.29324300;8.70599800;2022-07-29T11:15:10;26.00;99.90
5848;DHT22;8756;49.29324300;8.70599800;2022-07-29T11:23:21;26.20;99.90
5848;DHT22;8756;49.29324300;8.70599800;2022-07-29T11:29:01;26.30;99.90
5848;DHT22;8756;49.29324300;8.70599800;2022-07-29T11:31:39;26.30;99.90
5848;DHT22;8756;49.29324300;8.70599800;2022-07-29T11:34:28;26.30;99.90
5848;DHT22;8756;49.29324300;8.70599800;2022-07-29T11:39:37;26.40;99.90
5848;DHT22;8756;49.29324300;8.70599800;2022-07-29T11:44:57;26.50;99.90
5848;DHT22;8756;49.29324300;8.70599800;2022-07-29T11:47:24;26.60;99.90
5848;DHT22;8756;49.29324300;8.70599800;2022-07-29T11:49:51;26.70;99.90
5848;DHT22;8756;49.29324300;8.70599800;2022-07-29T11:52:18;26.70;99.60
5848;DHT22;8756;49.29324300;8.70599800;2022-07-29T11:54:44;26.70;99.60
5848;DHT22;8756;49.29324300;8.70599800;2022-07-29T11:57:12;26.70;99.90
5848;DHT22;8756;49.29324300;8.70599800;2022-07-29T11:59:40;26.80;99.10
5848;DHT22;8756;49.29324300;8.70599800;2022-07-29T12:02:07;26.80;99.30
5848;DHT22;8756;49.29324300;8.70599800;2022-07-29T12:04:34;26.90;99.90
5848;DHT22;8756;49.29324300;8.70599800;2022-07-29T12:07:00;27.00;99.90
5848;DHT22;8756;49.29324300;8.70599800;2022-07-29T12:09:26;27.10;99.90
5848;DHT22;8756;49.29324300;8.70599800;2022-07-29T12:11:58;27.10;99.70
5848;DHT22;8756;49.29324300;8.70599800;2022-07-29T12:14:26;27.20;99.20
5848;DHT22;8756;49.29324300;8.70599800;2022-07-29T12:16:52;27.30;99.10
5848;DHT22;8756;49.29324300;8.70599800;2022-07-29T12:19:17;27.40;99.30
5848;DHT22;8756;49.29324300;8.70599800;2022-07-29T12:21:52;27.40;98.00
5848;DHT22;8756;49.29324300;8.70599800;2022-07-29T12:24:18;27.40;98.00
5848;DHT22;8756;49.29324300;8.70599800;2022-07-29T12:26:56;27.50;97.70
5848;DHT22;8756;49.29324300;8.70599800;2022-07-29T12:29:23;27.50;97.60
5848;DHT22;8756;49.29324300;8.70599800;2022-07-29T12:31:53;27.50;97.00
5848;DHT22;8756;49.29324300;8.70599800;2022-07-29T12:34:21;27.50;97.00
5848;DHT22;8756;49.29324300;8.70599800;2022-07-29T12:36:48;27.50;97.00
5848;DHT22;8756;49.29324300;8.70599800;2022-07-29T12:39:16;27.60;96.40
5848;DHT22;8756;49.29324300;8.70599800;2022-07-29T12:41:43;27.60;95.80
5848;DHT22;8756;49.29324300;8.70599800;2022-07-29T12:44:10;27.70;95.70
5848;DHT22;8756;49.29324300;8.70599800;2022-07-29T12:46:36;27.70;96.80
5848;DHT22;8756;49.29324300;8.70599800;2022-07-29T12:49:03;27.90;96.40
5848;DHT22;8756;49.29324300;8.70599800;2022-07-29T12:51:30;27.90;95.40
5848;DHT22;8756;49.29324300;8.70599800;2022-07-29T12:54:08;27.90;95.00
5848;DHT22;8756;49.29324300;8.70599800;2022-07-29T12:56:38;27.80;94.70
5848;DHT22;8756;49.29324300;8.70599800;2022-07-29T12:59:15;27.80;95.10
5848;DHT22;8756;49.29324300;8.70599800;2022-07-29T13:01:41;27.80;95.30
5848;DHT22;8756;49.29324300;8.70599800;2022-07-29T13:04:07;27.80;95.80
5848;DHT22;8756;49.29324300;8.70599800;2022-07-29T13:06:39;27.80;95.10
5848;DHT22;8756;49.29324300;8.70599800;2022-07-29T13:09:10;27.80;94.30
5848;DHT22;8756;49.29324300;8.70599800;2022-07-29T13:11:54;27.80;93.80
5848;DHT22;8756;49.29324300;8.70599800;2022-07-29T13:14:32;27.70;94.00
5848;DHT22;8756;49.29324300;8.70599800;2022-07-29T13:17:02;27.70;93.60
5848;DHT22;8756;49.29324300;8.70599800;2022-07-29T13:19:52;27.70;93.60
5848;DHT22;8756;49.29324300;8.70599800;2022-07-29T13:22:20;27.70;93.50
5848;DHT22;8756;49.29324300;8.70599800;2022-07-29T13:27:17;27.80;94.60
5848;DHT22;8756;49.29324300;8.70599800;2022-07-29T13:29:43;27.80;93.20
5848;DHT22;8756;49.29324300;8.70599800;2022-07-29T13:32:09;27.80;93.50
5848;DHT22;8756;49.29324300;8.70599800;2022-07-29T13:34:35;27.80;94.40
5848;DHT22;8756;49.29324300;8.70599800;2022-07-29T13:37:00;27.70;94.60
5848;DHT22;8756;49.29324300;8.70599800;2022-07-29T13:39:26;27.70;94.00
5848;DHT22;8756;49.29324300;8.70599800;2022-07-29T13:41:51;27.70;93.70
5848;DHT22;8756;49.29324300;8.70599800;2022-07-29T13:44:17;27.60;94.40
5848;DHT22;8756;49.29324300;8.70599800;2022-07-29T13:46:43;27.60;94.40
5848;DHT22;8756;49.29324300;8.70599800;2022-07-29T13:49:10;27.50;95.00
5848;DHT22;8756;49.29324300;8.70599800;2022-07-29T13:51:36;27.60;94.90
5848;DHT22;8756;49.29324300;8.70599800;2022-07-29T13:54:02;27.50;94.50
5848;DHT22;8756;49.29324300;8.70599800;2022-07-29T13:56:28;27.50;94.50
5848;DHT22;8756;49.29324300;8.70599800;2022-07-29T13:58:54;27.50;95.30
5848;DHT22;8756;49.29324300;8.70599800;2022-07-29T14:01:22;27.50;94.50
5848;DHT22;8756;49.29324300;8.70599800;2022-07-29T14:03:48;27.40;94.60
5848;DHT22;8756;49.29324300;8.70599800;2022-07-29T14:06:14;27.40;94.70
5848;DHT22;8756;49.29324300;8.70599800;2022-07-29T14:08:40;27.30;94.30
5848;DHT22;8756;49.29324300;8.70599800;2022-07-29T14:11:05;27.30;94.40
5848;DHT22;8756;49.29324300;8.70599800;2022-07-29T14:13:31;27.30;93.50
5848;DHT22;8756;49.29324300;8.70599800;2022-07-29T14:15:57;27.30;93.60
5848;DHT22;8756;49.29324300;8.70599800;2022-07-29T14:18:22;27.30;92.60
5848;DHT22;8756;49.29324300;8.70599800;2022-07-29T14:20:48;27.30;92.90
5848;DHT22;8756;49.29324300;8.70599800;2022-07-29T14:23:14;27.30;93.60
5848;DHT22;8756;49.29324300;8.70599800;2022-07-29T14:25:40;27.30;93.60
5848;DHT22;8756;49.29324300;8.70599800;2022-07-29T14:28:06;27.40;93.90
5848;DHT22;8756;49.29324300;8.70599800;2022-07-29T14:30:32;27.40;92.80
5848;DHT22;8756;49.29324300;8.70599800;2022-07-29T14:32:57;27.40;92.50
5848;DHT22;8756;49.29324300;8.70599800;2022-07-29T14:35:23;27.40;92.70
5848;DHT22;8756;49.29324300;8.70599800;2022-07-29T14:37:49;27.40;92.70
5848;DHT22;8756;49.29324300;8.70599800;2022-07-29T14:40:15;27.30;92.80
5848;DHT22;8756;49.29324300;8.70599800;2022-07-29T14:42:40;27.30;92.90
5848;DHT22;8756;49.29324300;8.70599800;2022-07-29T14:45:08;27.30;93.00
5848;DHT22;8756;49.29324300;8.70599800;2022-07-29T14:47:34;27.30;93.00
5848;DHT22;8756;49.29324300;8.70599800;2022-07-29T14:50:00;27.30;93.50
5848;DHT22;8756;49.29324300;8.70599800;2022-07-29T14:52:25;27.30;93.30